sensor_id;sensor_type;location;lat;lon;timestamp;temperature;humidity
17619;DHT22;8928;51.678;6.074;2022-07-23T13:31:50;32.10;99.90
17619;DHT22;8928;51.678;6.074;2022-07-23T13:34:37;33.10;99.90
17619;DHT22;8928;51.678;6.074;2022-07-23T13:37:24;33.70;99.90
17619;DHT22;8928;51.678;6.074;2022-07-23T13:40:12;33.60;99.90
17619;DHT22;8928;51.678;6.074;2022-07-23T13:42:59;33.70;99.90
17619;DHT22;8928;51.678;6.074;2022-07-23T13:45:47;33.40;99.90
17619;DHT22;8928;51.678;6.074;2022-07-23T13:48:35;33.00;99.90
17619;DHT22;8928;51.678;6.074;2022-07-23T13:51:23;32.50;99.90
17619;DHT22;8928;51.678;6.074;2022-07-23T13:54:10;32.50;99.90
17619;DHT22;8928;51.678;6.074;2022-07-23T13:56:57;33.30;99.90
17619;DHT22;8928;51.678;6.074;2022-07-23T13:59:44;33.50;99.90
17619;DHT22;8928;51.678;6.074;2022-07-23T14:02:31;34.20;99.90
17619;DHT22;8928;51.678;6.074;2022-07-23T14:05:20;34.60;99.90
17619;DHT22;8928;51.678;6.074;2022-07-23T14:08:07;35.00;99.90
17619;DHT22;8928;51.678;6.074;2022-07-23T14:10:54;35.20;99.90
17619;DHT22;8928;51.678;6.074;2022-07-23T14:13:41;33.60;99.90
17619;DHT22;8928;51.678;6.074;2022-07-23T14:16:28;33.90;99.90
17619;DHT22;8928;51.678;6.074;2022-07-23T14:19:15;33.40;99.90
17619;DHT22;8928;51.678;6.074;2022-07-23T14:22:04;33.90;99.90
17619;DHT22;8928;51.678;6.074;2022-07-23T14:24:51;34.30;99.90
17619;DHT22;8928;51.678;6.074;2022-07-23T14:27:39;34.40;99.30
17619;DHT22;8928;51.678;6.074;2022-07-23T14:30:26;34.60;99.90
17619;DHT22;8928;51.678;6.074;2022-07-23T14:33:13;34.30;99.00
17619;DHT22;8928;51.678;6.074;2022-07-23T14:36:01;34.30;99.90
17619;DHT22;8928;51.678;6.074;2022-07-23T14:38:49;34.10;97.70
17619;DHT22;8928;51.678;6.074;2022-07-23T14:41:37;34.40;97.70
17619;DHT22;8928;51.678;6.074;2022-07-23T14:44:24;34.00;97.10
17619;DHT22;8928;51.678;6.074;2022-07-23T14:47:11;34.20;96.20
17619;DHT22;8928;51.678;6.074;2022-07-23T14:49:58;33.60;96.50
17619;DHT22;8928;51.678;6.074;2022-07-23T14:52:45;33.60;97.40
17619;DHT22;8928;51.678;6.074;2022-07-23T14:55:34;34.10;97.30
17619;DHT22;8928;51.678;6.074;2022-07-23T14:58:21;34.30;95.40
17619;DHT22;8928;51.678;6.074;2022-07-23T15:01:08;34.30;95.80
17619;DHT22;8928;51.678;6.074;2022-07-23T15:03:55;34.10;95.20
17619;DHT22;8928;51.678;6.074;2022-07-23T15:06:43;34.80;96.60
17619;DHT22;8928;51.678;6.074;2022-07-23T15:09:30;35.50;93.70
17619;DHT22;8928;51.678;6.074;2022-07-23T15:12:19;35.40;94.30
17619;DHT22;8928;51.678;6.074;2022-07-23T15:15:06;34.10;94.00
17619;DHT22;8928;51.678;6.074;2022-07-23T15:17:53;33.10;94.10
17619;DHT22;8928;51.678;6.074;2022-07-23T15:20:40;33.50;94.60
17619;DHT22;8928;51.678;6.074;2022-07-23T15:23:28;33.80;95.70
17619;DHT22;8928;51.678;6.074;2022-07-23T15:26:15;34.70;93.70
17619;DHT22;8928;51.678;6.074;2022-07-23T15:29:05;35.20;93.80
17619;DHT22;8928;51.678;6.074;2022-07-23T15:31:52;35.20;93.40
17619;DHT22;8928;51.678;6.074;2022-07-23T15:34:39;34.70;92.80
17619;DHT22;8928;51.678;6.074;2022-07-23T15:37:26;34.50;93.00
17619;DHT22;8928;51.678;6.074;2022-07-23T15:40:13;34.60;93.40
17619;DHT22;8928;51.678;6.074;2022-07-23T15:43:01;34.20;93.30
17619;DHT22;8928;51.678;6.074;2022-07-23T15:45:50;33.90;94.40
17619;DHT22;8928;51.678;6.074;2022-07-23T15:48:37;33.50;95.10
17619;DHT22;8928;51.678;6.074;2022-07-23T15:51:25;33.00;94.50
17619;DHT22;8928;51.678;6.074;2022-07-23T15:54:12;33.10;94.70
17619;DHT22;8928;51.678;6.074;2022-07-23T15:56:59;33.80;94.00
17619;DHT22;8928;51.678;6.074;2022-07-23T15:59:46;34.30;94.20
17619;DHT22;8928;51.678;6.074;2022-07-23T16:02:34;35.30;93.60
17619;DHT22;8928;51.678;6.074;2022-07-23T16:05:21;35.80;93.10
17619;DHT22;8928;51.678;6.074;2022-07-23T16:08:17;36.00;92.60
17619;DHT22;8928;51.678;6.074;2022-07-23T16:11:05;35.60;92.90
17619;DHT22;8928;51.678;6.074;2022-07-23T16:13:52;35.30;92.50
17619;DHT22;8928;51.678;6.074;2022-07-23T16:16:40;35.10;92.40
17619;DHT22;8928;51.678;6.074;2022-07-23T16:19:28;34.90;93.00
17619;DHT22;8928;51.678;6.074;2022-07-23T16:22:16;35.30;92.90
17619;DHT22;8928;51.678;6.074;2022-07-23T16:25:03;35.50;92.80
17619;DHT22;8928;51.678;6.074;2022-07-23T16:27:50;35.90;92.90
17619;DHT22;8928;51.678;6.074;2022-07-23T16:30:38;35.70;91.90
17619;DHT22;8928;51.678;6.074;2022-07-23T16:33:25;35.40;92.20
17619;DHT22;8928;51.678;6.074;2022-07-23T16:36:14;35.20;94.50
17619;DHT22;8928;51.678;6.074;2022-07-23T16:39:02;34.90;92.20
17619;DHT22;8928;51.678;6.074;2022-07-23T16:41:49;34.90;92.60
17619;DHT22;8928;51.678;6.074;2022-07-23T16:44:36;35.10;91.50
17619;DHT22;8928;51.678;6.074;2022-07-23T16:47:23;34.50;91.60
17619;DHT22;8928;51.678;6.074;2022-07-23T16:50:11;34.00;92.90
17619;DHT22;8928;51.678;6.074;2022-07-23T16:52:59;34.30;93.20
17619;DHT22;8928;51.678;6.074;2022-07-23T16:55:46;34.40;92.50
17619;DHT22;8928;51.678;6.074;2022-07-23T16:58:34;35.20;93.30
17619;DHT22;8928;51.678;6.074;2022-07-23T17:01:21;35.60;92.70
17619;DHT22;8928;51.678;6.074;2022-07-23T17:04:08;35.80;91.90
17619;DHT22;8928;51.678;6.074;2022-07-23T17:06:55;36.30;92.80
17619;DHT22;8928;51.678;6.074;2022-07-23T17:09:44;35.70;91.50
17619;DHT22;8928;51.678;6.074;2022-07-23T17:12:31;35.50;93.50
17619;DHT22;8928;51.678;6.074;2022-07-23T17:15:18;35.30;91.60
17619;DHT22;8928;51.678;6.074;2022-07-23T17:18:05;35.30;91.70
17619;DHT22;8928;51.678;6.074;2022-07-23T17:20:53;35.20;91.10
17619;DHT22;8928;51.678;6.074;2022-07-23T17:23:40;34.70;91.40
17619;DHT22;8928;51.678;6.074;2022-07-23T17:26:29;34.80;91.20
17619;DHT22;8928;51.678;6.074;2022-07-23T17:29:18;34.50;92.10
17619;DHT22;8928;51.678;6.074;2022-07-23T17:32:06;34.70;91.30
17619;DHT22;8928;51.678;6.074;2022-07-23T17:34:53;34.50;91.40
17619;DHT22;8928;51.678;6.074;2022-07-23T17:37:40;34.20;91.90
17619;DHT22;8928;51.678;6.074;2022-07-23T17:40:28;33.30;93.10
17619;DHT22;8928;51.678;6.074;2022-07-23T17:43:17;32.00;94.90
17619;DHT22;8928;51.678;6.074;2022-07-23T17:46:04;31.70;96.00
17619;DHT22;8928;51.678;6.074;2022-07-23T17:48:51;31.90;95.40
17619;DHT22;8928;51.678;6.074;2022-07-23T17:51:39;31.90;94.40
17619;DHT22;8928;51.678;6.074;2022-07-23T17:54:26;31.80;93.10
17619;DHT22;8928;51.678;6.074;2022-07-23T17:57:13;31.90;94.00
17619;DHT22;8928;51.678;6.074;2022-07-23T18:00:03;31.80;95.50
17619;DHT22;8928;51.678;6.074;2022-07-23T18:02:52;31.60;94.20
17619;DHT22;8928;51.678;6.074;2022-07-23T18:05:40;31.20;95.90
17619;DHT22;8928;51.678;6.074;2022-07-23T18:08:27;30.80;95.90
17619;DHT22;8928;51.678;6.074;2022-07-23T18:11:14;31.10;95.60
17619;DHT22;8928;51.678;6.074;2022-07-23T18:14:01;31.00;94.60
17619;DHT22;8928;51.678;6.074;2022-07-23T18:16:49;30.50;96.60
17619;DHT22;8928;51.678;6.074;2022-07-23T18:19:36;30.40;96.60
17619;DHT22;8928;51.678;6.074;2022-07-23T18:22:23;29.70;98.30
17619;DHT22;8928;51.678;6.074;2022-07-23T18:25:11;29.60;97.80
17619;DHT22;8928;51.678;6.074;2022-07-23T18:27:58;29.10;98.10
17619;DHT22;8928;51.678;6.074;2022-07-23T18:30:45;28.80;99.90
17619;DHT22;8928;51.678;6.074;2022-07-23T18:33:34;28.50;99.90
17619;DHT22;8928;51.678;6.074;2022-07-23T18:36:21;28.50;99.90
17619;DHT22;8928;51.678;6.074;2022-07-23T18:39:08;28.10;99.90
17619;DHT22;8928;51.678;6.074;2022-07-23T18:41:55;27.60;99.90
17619;DHT22;8928;51.678;6.074;2022-07-23T18:44:42;27.10;99.90
17619;DHT22;8928;51.678;6.074;2022-07-23T18:47:30;26.60;99.90
17619;DHT22;8928;51.678;6.074;2022-07-23T18:50:18;26.30;99.90
17619;DHT22;8928;51.678;6.074;2022-07-23T18:53:06;25.90;99.90
17619;DHT22;8928;51.678;6.074;2022-07-23T18:55:53;25.50;99.90
17619;DHT22;8928;51.678;6.074;2022-07-23T18:58:40;25.30;99.90
17619;DHT22;8928;51.678;6.074;2022-07-23T19:01:27;24.80;99.90
17619;DHT22;8928;51.678;6.074;2022-07-23T19:04:15;24.20;99.90
17619;DHT22;8928;51.678;6.074;2022-07-23T19:07:04;23.60;99.90
17619;DHT22;8928;51.678;6.074;2022-07-23T19:09:51;23.00;99.90
17619;DHT22;8928;51.678;6.074;2022-07-23T19:12:39;22.60;99.90
17619;DHT22;8928;51.678;6.074;2022-07-23T19:15:26;22.20;99.90
17619;DHT22;8928;51.678;6.074;2022-07-23T19:18:13;21.80;99.90
17619;DHT22;8928;51.678;6.074;2022-07-23T19:21:00;21.60;99.90
17619;DHT22;8928;51.678;6.074;2022-07-23T19:23:48;21.30;99.90
17619;DHT22;8928;51.678;6.074;2022-07-23T19:26:36;21.10;99.90
17619;DHT22;8928;51.678;6.074;2022-07-23T19:29:23;20.90;99.90
17619;DHT22;8928;51.678;6.074;2022-07-23T19:32:10;20.70;99.90
17619;DHT22;8928;51.678;6.074;2022-07-23T19:34:57;20.50;99.90
17619;DHT22;8928;51.678;6.074;2022-07-23T19:37:44;20.40;99.90
17619;DHT22;8928;51.678;6.074;2022-07-23T19:40:33;20.20;99.90
17619;DHT22;8928;51.678;6.074;2022-07-23T19:43:20;20.00;99.90
17619;DHT22;8928;51.678;6.074;2022-07-23T19:46:07;19.90;99.90
17619;DHT22;8928;51.678;6.074;2022-07-23T19:48:54;19.70;99.90
17619;DHT22;8928;51.678;6.074;2022-07-23T19:51:41;19.60;99.90
17619;DHT22;8928;51.678;6.074;2022-07-23T19:54:28;19.50;99.90
17619;DHT22;8928;51.678;6.074;2022-07-23T19:57:17;19.40;99.90
17619;DHT22;8928;51.678;6.074;2022-07-23T20:00:05;19.20;99.90
17619;DHT22;8928;51.678;6.074;2022-07-23T20:02:53;19.10;99.90
17619;DHT22;8928;51.678;6.074;2022-07-23T20:05:40;19.10;99.90
17619;DHT22;8928;51.678;6.074;2022-07-23T20:08:27;19.00;99.90
17619;DHT22;8928;51.678;6.074;2022-07-23T20:11:14;18.80;99.90
17619;DHT22;8928;51.678;6.074;2022-07-23T20:14:03;18.70;99.90
17619;DHT22;8928;51.678;6.074;2022-07-23T20:16:50;18.60;99.90
17619;DHT22;8928;51.678;6.074;2022-07-23T20:19:37;18.50;99.90
17619;DHT22;8928;51.678;6.074;2022-07-23T20:22:25;18.40;99.90
17619;DHT22;8928;51.678;6.074;2022-07-23T20:25:12;18.40;99.90
17619;DHT22;8928;51.678;6.074;2022-07-23T20:27:59;18.30;99.90
17619;DHT22;8928;51.678;6.074;2022-07-23T20:30:49;18.20;99.90
17619;DHT22;8928;51.678;6.074;2022-07-23T20:33:37;18.10;99.90
17619;DHT22;8928;51.678;6.074;2022-07-23T20:36:24;18.00;99.90
17619;DHT22;8928;51.678;6.074;2022-07-23T20:39:11;17.90;99.90
17619;DHT22;8928;51.678;6.074;2022-07-23T20:41:59;17.80;99.90
17619;DHT22;8928;51.678;6.074;2022-07-23T20:44:46;17.70;99.90
17619;DHT22;8928;51.678;6.074;2022-07-23T20:47:35;17.70;99.90
17619;DHT22;8928;51.678;6.074;2022-07-23T20:50:23;17.60;99.90
17619;DHT22;8928;51.678;6.074;2022-07-23T20:53:11;17.60;99.90
17619;DHT22;8928;51.678;6.074;2022-07-23T20:55:58;17.60;99.90
17619;DHT22;8928;51.678;6.074;2022-07-23T20:58:45;17.50;99.90
17619;DHT22;8928;51.678;6.074;2022-07-23T21:01:32;17.50;99.90
17619;DHT22;8928;51.678;6.074;2022-07-23T21:04:21;17.40;99.90
17619;DHT22;8928;51.678;6.074;2022-07-23T21:07:08;17.40;99.90
17619;DHT22;8928;51.678;6.074;2022-07-23T21:09:55;17.40;99.90
17619;DHT22;8928;51.678;6.074;2022-07-23T21:12:42;17.40;99.90
17619;DHT22;8928;51.678;6.074;2022-07-23T21:15:29;17.40;99.90
17619;DHT22;8928;51.678;6.074;2022-07-23T21:18:16;17.40;99.90
17619;DHT22;8928;51.678;6.074;2022-07-23T21:21:05;17.40;99.90
17619;DHT22;8928;51.678;6.074;2022-07-23T21:23:57;17.40;99.90
17619;DHT22;8928;51.678;6.074;2022-07-23T21:26:44;17.30;99.90
17619;DHT22;8928;51.678;6.074;2022-07-23T21:29:31;17.30;99.90
17619;DHT22;8928;51.678;6.074;2022-07-23T21:32:18;17.20;99.90
17619;DHT22;8928;51.678;6.074;2022-07-23T21:35:06;17.20;99.90
17619;DHT22;8928;51.678;6.074;2022-07-23T21:37:55;17.10;99.90
17619;DHT22;8928;51.678;6.074;2022-07-23T21:40:42;17.00;99.90
17619;DHT22;8928;51.678;6.074;2022-07-23T21:43:30;17.00;99.90
17619;DHT22;8928;51.678;6.074;2022-07-23T21:46:17;16.90;99.90
17619;DHT22;8928;51.678;6.074;2022-07-23T21:49:05;16.90;99.90
17619;DHT22;8928;51.678;6.074;2022-07-23T21:51:52;16.80;99.90
17619;DHT22;8928;51.678;6.074;2022-07-23T21:54:41;16.70;99.90
17619;DHT22;8928;51.678;6.074;2022-07-23T21:57:28;16.70;99.90
17619;DHT22;8928;51.678;6.074;2022-07-23T22:00:19;16.60;99.90
17619;DHT22;8928;51.678;6.074;2022-07-23T22:03:08;16.60;99.90
17619;DHT22;8928;51.678;6.074;2022-07-23T22:05:55;16.60;99.90
17619;DHT22;8928;51.678;6.074;2022-07-23T22:08:43;16.50;99.90
17619;DHT22;8928;51.678;6.074;2022-07-23T22:11:31;16.50;99.90
17619;DHT22;8928;51.678;6.074;2022-07-23T22:14:19;16.40;99.90
17619;DHT22;8928;51.678;6.074;2022-07-23T22:17:06;16.50;99.90
17619;DHT22;8928;51.678;6.074;2022-07-23T22:19:53;16.50;99.90
17619;DHT22;8928;51.678;6.074;2022-07-23T22:22:41;16.50;99.90
17619;DHT22;8928;51.678;6.074;2022-07-23T22:25:28;16.50;99.90
17619;DHT22;8928;51.678;6.074;2022-07-23T22:28:17;16.50;99.90
17619;DHT22;8928;51.678;6.074;2022-07-23T22:31:04;16.40;99.90
17619;DHT22;8928;51.678;6.074;2022-07-23T22:33:52;16.40;99.90
17619;DHT22;8928;51.678;6.074;2022-07-23T22:36:39;16.30;99.90
17619;DHT22;8928;51.678;6.074;2022-07-23T22:39:26;16.30;99.90
17619;DHT22;8928;51.678;6.074;2022-07-23T22:42:13;16.30;99.90
17619;DHT22;8928;51.678;6.074;2022-07-23T22:45:01;16.20;99.90
17619;DHT22;8928;51.678;6.074;2022-07-23T22:47:49;16.20;99.90
17619;DHT22;8928;51.678;6.074;2022-07-23T22:50:36;16.20;99.90
17619;DHT22;8928;51.678;6.074;2022-07-23T22:53:23;16.10;99.90
17619;DHT22;8928;51.678;6.074;2022-07-23T22:56:10;16.10;99.90
17619;DHT22;8928;51.678;6.074;2022-07-23T22:58:57;16.00;99.90
17619;DHT22;8928;51.678;6.074;2022-07-23T23:01:45;16.00;99.90
17619;DHT22;8928;51.678;6.074;2022-07-23T23:04:32;16.10;99.90
17619;DHT22;8928;51.678;6.074;2022-07-23T23:07:19;16.20;99.90
17619;DHT22;8928;51.678;6.074;2022-07-23T23:10:07;16.30;99.90
17619;DHT22;8928;51.678;6.074;2022-07-23T23:12:54;16.20;99.90
17619;DHT22;8928;51.678;6.074;2022-07-23T23:15:41;16.20;99.90
17619;DHT22;8928;51.678;6.074;2022-07-23T23:18:30;16.10;99.90
17619;DHT22;8928;51.678;6.074;2022-07-23T23:21:17;16.10;99.90
17619;DHT22;8928;51.678;6.074;2022-07-23T23:24:04;16.10;99.90
17619;DHT22;8928;51.678;6.074;2022-07-23T23:26:52;16.00;99.90
17619;DHT22;8928;51.678;6.074;2022-07-23T23:29:39;15.90;99.90
17619;DHT22;8928;51.678;6.074;2022-07-23T23:32:26;15.90;99.90
17619;DHT22;8928;51.678;6.074;2022-07-23T23:35:14;15.90;99.90
17619;DHT22;8928;51.678;6.074;2022-07-23T23:38:01;15.80;99.90
17619;DHT22;8928;51.678;6.074;2022-07-23T23:40:48;15.80;99.90
17619;DHT22;8928;51.678;6.074;2022-07-23T23:43:35;15.80;99.90
17619;DHT22;8928;51.678;6.074;2022-07-23T23:46:22;15.80;99.90
17619;DHT22;8928;51.678;6.074;2022-07-23T23:49:09;15.80;99.90
17619;DHT22;8928;51.678;6.074;2022-07-23T23:51:58;15.70;99.90
17619;DHT22;8928;51.678;6.074;2022-07-23T23:54:45;15.70;99.90
17619;DHT22;8928;51.678;6.074;2022-07-23T23:57:32;15.70;99.90
